SWA3131 KRDU-KFLL
Flight info
| Callsign | SWA3131 |
|---|---|
| Flight time | 1h 50m |
| Altitude | 40000 |
| Route | ROZBO5 ROZBO CAKET Q97 PRMUS CUUDA3 |
| Aircraft | B38M/M-SADE2E3GHIJ4J7P2RWZ/LB1D1 |
Departure
| Time | 2026-05-03 20:15 |
|---|---|
| Airport | Raleigh-Durham International Airport (KRDU) |
Arrival
| Time | 2026-05-03 22:05 |
|---|---|
| Airport | Fort Lauderdale Hollywood International Airport (KFLL) |
| Time | Latitude | Longitude | Altitude | Speed | Heading |
|---|---|---|---|---|---|
| 2026-05-03 20:15 | 35.61553 | -78.72733 | 13700 ft | 353 kts | 180° |
| 2026-05-03 20:15 | 35.59125 | -78.72243 | 14653 ft | 354 kts | 180° |
| 2026-05-03 20:15 | 35.56681 | -78.71740 | 15567 ft | 357 kts | 180° |
| 2026-05-03 20:15 | 35.54234 | -78.71234 | 16491 ft | 357 kts | 181° |
| 2026-05-03 20:16 | 35.51777 | -78.70738 | 17376 ft | 356 kts | 184° |
| 2026-05-03 20:16 | 35.49324 | -78.70399 | 18220 ft | 355 kts | 185° |
| 2026-05-03 20:16 | 35.46863 | -78.70054 | 19038 ft | 356 kts | 185° |
| 2026-05-03 20:16 | 35.44391 | -78.69702 | 19786 ft | 359 kts | 185° |
| 2026-05-03 20:17 | 35.41895 | -78.69342 | 20455 ft | 363 kts | 185° |
| 2026-05-03 20:17 | 35.39384 | -78.68979 | 21155 ft | 365 kts | 185° |
| 2026-05-03 20:17 | 35.36886 | -78.68619 | 21803 ft | 368 kts | 186° |
| 2026-05-03 20:17 | 35.34302 | -78.68245 | 22436 ft | 371 kts | 186° |
| 2026-05-03 20:18 | 35.31767 | -78.67880 | 23088 ft | 372 kts | 186° |
| 2026-05-03 20:18 | 35.29152 | -78.67503 | 23683 ft | 375 kts | 186° |
| 2026-05-03 20:18 | 35.26585 | -78.67133 | 24298 ft | 377 kts | 186° |
| 2026-05-03 20:18 | 35.23971 | -78.66757 | 24840 ft | 380 kts | 186° |
| 2026-05-03 20:19 | 35.21339 | -78.66378 | 25407 ft | 382 kts | 187° |
| 2026-05-03 20:19 | 35.18692 | -78.65998 | 25956 ft | 384 kts | 187° |
| 2026-05-03 20:19 | 35.16032 | -78.65616 | 26473 ft | 386 kts | 187° |
| 2026-05-03 20:19 | 35.13363 | -78.65232 | 27009 ft | 387 kts | 187° |
| 2026-05-03 20:20 | 35.10684 | -78.64849 | 27490 ft | 389 kts | 187° |
| 2026-05-03 20:20 | 35.07985 | -78.64462 | 27960 ft | 391 kts | 188° |
| 2026-05-03 20:20 | 35.05273 | -78.64072 | 28446 ft | 393 kts | 188° |
| 2026-05-03 20:20 | 35.02556 | -78.63684 | 28912 ft | 394 kts | 188° |
| 2026-05-03 20:21 | 34.99822 | -78.63292 | 29341 ft | 397 kts | 188° |
| 2026-05-03 20:21 | 34.97124 | -78.63188 | 29727 ft | 376 kts | 201° |
| 2026-05-03 20:21 | 34.94687 | -78.64031 | 29996 ft | 358 kts | 214° |
| 2026-05-03 20:21 | 34.92450 | -78.65319 | 30148 ft | 364 kts | 216° |
| 2026-05-03 20:22 | 34.90188 | -78.66713 | 30505 ft | 364 kts | 217° |
| 2026-05-03 20:22 | 34.87956 | -78.68167 | 30970 ft | 363 kts | 218° |
| 2026-05-03 20:22 | 34.85749 | -78.69648 | 31432 ft | 362 kts | 218° |
| 2026-05-03 20:22 | 34.83551 | -78.71145 | 31875 ft | 362 kts | 218° |
| 2026-05-03 20:23 | 34.81361 | -78.72650 | 32333 ft | 361 kts | 219° |
| 2026-05-03 20:23 | 34.79180 | -78.74157 | 32771 ft | 361 kts | 219° |
| 2026-05-03 20:23 | 34.76997 | -78.75667 | 33212 ft | 360 kts | 219° |
| 2026-05-03 20:23 | 34.74823 | -78.77173 | 33628 ft | 360 kts | 219° |
| 2026-05-03 20:24 | 34.73377 | -78.78173 | 33884 ft | 360 kts | 219° |
| 2026-05-03 20:24 | 34.70472 | -78.80183 | 34444 ft | 360 kts | 219° |
| 2026-05-03 20:24 | 34.69031 | -78.81179 | 34718 ft | 359 kts | 219° |
| 2026-05-03 20:24 | 34.66857 | -78.82681 | 35081 ft | 359 kts | 219° |
| 2026-05-03 20:25 | 34.64686 | -78.84181 | 35455 ft | 359 kts | 219° |
| 2026-05-03 20:25 | 34.62516 | -78.85679 | 35807 ft | 359 kts | 219° |
| 2026-05-03 20:25 | 34.60348 | -78.87175 | 36151 ft | 358 kts | 220° |
| 2026-05-03 20:25 | 34.57494 | -78.89141 | 36797 ft | 353 kts | 220° |
| 2026-05-03 20:26 | 34.56062 | -78.90128 | 37068 ft | 351 kts | 220° |
| 2026-05-03 20:26 | 34.53932 | -78.91595 | 37345 ft | 352 kts | 220° |
| 2026-05-03 20:26 | 34.51799 | -78.93062 | 37595 ft | 353 kts | 220° |
| 2026-05-03 20:26 | 34.49668 | -78.94528 | 37852 ft | 353 kts | 220° |
| 2026-05-03 20:27 | 34.47559 | -78.95978 | 38113 ft | 353 kts | 220° |
| 2026-05-03 20:27 | 34.45396 | -78.97464 | 38371 ft | 353 kts | 220° |
| 2026-05-03 20:27 | 34.43529 | -78.98746 | 38563 ft | 353 kts | 220° |
| 2026-05-03 20:27 | 34.41388 | -79.00215 | 38762 ft | 354 kts | 220° |
| 2026-05-03 20:28 | 34.39238 | -79.01689 | 38970 ft | 355 kts | 220° |
| 2026-05-03 20:28 | 34.37096 | -79.03157 | 39193 ft | 355 kts | 220° |
| 2026-05-03 20:28 | 34.34940 | -79.04634 | 39374 ft | 355 kts | 220° |
| 2026-05-03 20:28 | 34.32788 | -79.06107 | 39543 ft | 356 kts | 220° |
| 2026-05-03 20:29 | 34.30644 | -79.07574 | 39697 ft | 357 kts | 220° |
| 2026-05-03 20:29 | 34.28460 | -79.09068 | 39830 ft | 359 kts | 220° |
| 2026-05-03 20:29 | 34.26280 | -79.10557 | 39946 ft | 360 kts | 220° |
| 2026-05-03 20:29 | 34.24098 | -79.12047 | 40071 ft | 361 kts | 220° |
| 2026-05-03 20:30 | 34.21903 | -79.13545 | 40106 ft | 362 kts | 220° |
| 2026-05-03 20:30 | 34.17528 | -79.16528 | 40101 ft | 361 kts | 220° |
| 2026-05-03 20:31 | 34.13154 | -79.19507 | 40104 ft | 361 kts | 220° |
| 2026-05-03 20:31 | 34.08810 | -79.22462 | 40102 ft | 361 kts | 220° |
| 2026-05-03 20:32 | 34.04431 | -79.25438 | 40104 ft | 361 kts | 219° |
| 2026-05-03 20:32 | 34.00058 | -79.28405 | 40101 ft | 361 kts | 219° |
| 2026-05-03 20:33 | 33.95676 | -79.31375 | 40103 ft | 361 kts | 219° |
| 2026-05-03 20:33 | 33.91301 | -79.34338 | 40104 ft | 361 kts | 219° |
| 2026-05-03 20:34 | 33.86918 | -79.37301 | 40103 ft | 361 kts | 219° |
| 2026-05-03 20:34 | 33.82567 | -79.40240 | 40102 ft | 361 kts | 219° |
| 2026-05-03 20:35 | 33.78182 | -79.43198 | 40103 ft | 361 kts | 219° |
| 2026-05-03 20:35 | 33.73911 | -79.46075 | 40106 ft | 361 kts | 220° |
| 2026-05-03 20:36 | 33.69514 | -79.49035 | 40130 ft | 363 kts | 220° |
| 2026-05-03 20:36 | 33.65114 | -79.51993 | 40129 ft | 362 kts | 220° |
| 2026-05-03 20:37 | 33.60717 | -79.54945 | 40128 ft | 362 kts | 220° |
| 2026-05-03 20:37 | 33.56312 | -79.57900 | 40128 ft | 362 kts | 220° |
| 2026-05-03 20:38 | 33.51910 | -79.60848 | 40130 ft | 362 kts | 220° |
| 2026-05-03 20:38 | 33.47511 | -79.63791 | 40135 ft | 362 kts | 220° |
| 2026-05-03 20:39 | 33.43135 | -79.66716 | 40134 ft | 362 kts | 220° |
| 2026-05-03 20:39 | 33.38726 | -79.69659 | 40135 ft | 362 kts | 220° |
| 2026-05-03 20:40 | 33.34323 | -79.72594 | 40129 ft | 363 kts | 220° |
| 2026-05-03 20:40 | 33.29918 | -79.75529 | 40129 ft | 363 kts | 220° |
| 2026-05-03 20:41 | 33.25505 | -79.78463 | 40129 ft | 363 kts | 220° |
| 2026-05-03 20:41 | 33.21099 | -79.81391 | 40129 ft | 363 kts | 220° |
| 2026-05-03 20:42 | 33.16687 | -79.84319 | 40133 ft | 363 kts | 220° |
| 2026-05-03 20:42 | 33.12272 | -79.87245 | 40128 ft | 363 kts | 220° |
| 2026-05-03 20:43 | 33.07861 | -79.90166 | 40129 ft | 363 kts | 220° |
| 2026-05-03 20:43 | 33.03480 | -79.93063 | 40128 ft | 363 kts | 220° |
| 2026-05-03 20:44 | 32.99068 | -79.95978 | 40128 ft | 363 kts | 220° |
| 2026-05-03 20:44 | 32.94651 | -79.98892 | 40129 ft | 363 kts | 220° |
| 2026-05-03 20:45 | 32.90240 | -80.01799 | 40130 ft | 363 kts | 220° |
| 2026-05-03 20:45 | 32.85821 | -80.04709 | 40130 ft | 363 kts | 220° |
| 2026-05-03 20:46 | 32.81413 | -80.07606 | 40128 ft | 362 kts | 220° |
| 2026-05-03 20:46 | 32.77041 | -80.10478 | 40128 ft | 362 kts | 220° |
| 2026-05-03 20:47 | 32.72639 | -80.13366 | 40132 ft | 362 kts | 220° |
| 2026-05-03 20:47 | 32.68231 | -80.16256 | 40128 ft | 362 kts | 220° |
| 2026-05-03 20:48 | 32.63823 | -80.19142 | 40130 ft | 362 kts | 220° |
| 2026-05-03 20:48 | 32.59418 | -80.22023 | 40130 ft | 362 kts | 220° |
| 2026-05-03 20:49 | 32.55010 | -80.24902 | 40130 ft | 362 kts | 220° |
| 2026-05-03 20:49 | 32.50609 | -80.27731 | 40130 ft | 363 kts | 220° |
| 2026-05-03 20:50 | 32.46159 | -80.30546 | 40130 ft | 363 kts | 220° |
| 2026-05-03 20:50 | 32.41712 | -80.33362 | 40130 ft | 363 kts | 220° |
| 2026-05-03 20:51 | 32.37262 | -80.36176 | 40130 ft | 363 kts | 220° |
| 2026-05-03 20:51 | 32.32811 | -80.38988 | 40130 ft | 363 kts | 220° |
| 2026-05-03 20:52 | 32.28387 | -80.41780 | 40130 ft | 363 kts | 220° |
| 2026-05-03 20:52 | 32.23935 | -80.44586 | 40130 ft | 363 kts | 220° |
| 2026-05-03 20:53 | 32.19480 | -80.47392 | 40130 ft | 363 kts | 220° |
| 2026-05-03 20:53 | 32.15027 | -80.50193 | 40130 ft | 363 kts | 220° |
| 2026-05-03 20:54 | 32.10571 | -80.52993 | 40130 ft | 363 kts | 220° |
| 2026-05-03 20:54 | 32.03885 | -80.57187 | 40130 ft | 363 kts | 220° |
| 2026-05-03 20:55 | 31.99423 | -80.59983 | 40130 ft | 363 kts | 220° |
| 2026-05-03 20:55 | 31.94969 | -80.62770 | 40151 ft | 363 kts | 220° |
| 2026-05-03 20:56 | 31.90507 | -80.65560 | 40156 ft | 363 kts | 220° |
| 2026-05-03 20:56 | 31.86043 | -80.68347 | 40157 ft | 363 kts | 220° |
| 2026-05-03 20:57 | 31.81615 | -80.71110 | 40157 ft | 363 kts | 220° |
| 2026-05-03 20:57 | 31.77148 | -80.73892 | 40157 ft | 363 kts | 220° |
| 2026-05-03 20:58 | 31.72684 | -80.76670 | 40157 ft | 363 kts | 220° |
| 2026-05-03 20:58 | 31.68221 | -80.79445 | 40157 ft | 363 kts | 220° |
| 2026-05-03 20:59 | 31.63753 | -80.82220 | 40157 ft | 363 kts | 220° |
| 2026-05-03 20:59 | 31.59284 | -80.84992 | 40157 ft | 363 kts | 220° |
| 2026-05-03 21:00 | 31.55577 | -80.87290 | 40157 ft | 363 kts | 220° |
| 2026-05-03 21:00 | 31.50351 | -80.90525 | 40157 ft | 363 kts | 220° |
| 2026-05-03 21:01 | 31.45911 | -80.93271 | 40157 ft | 363 kts | 220° |
| 2026-05-03 21:01 | 31.41441 | -80.96031 | 40157 ft | 363 kts | 220° |
| 2026-05-03 21:02 | 31.36965 | -80.98793 | 40157 ft | 363 kts | 220° |
| 2026-05-03 21:02 | 31.32494 | -81.01549 | 40157 ft | 363 kts | 220° |
| 2026-05-03 21:03 | 31.28019 | -81.04305 | 40157 ft | 363 kts | 220° |
| 2026-05-03 21:03 | 31.25671 | -81.05497 | 40142 ft | 380 kts | 208° |
| 2026-05-03 21:03 | 31.22973 | -81.05957 | 40165 ft | 402 kts | 198° |
| 2026-05-03 21:04 | 31.17347 | -81.06226 | 40156 ft | 407 kts | 197° |
| 2026-05-03 21:04 | 31.11682 | -81.06387 | 40157 ft | 408 kts | 197° |
| 2026-05-03 21:05 | 31.06041 | -81.06509 | 40157 ft | 408 kts | 197° |
| 2026-05-03 21:05 | 31.00361 | -81.06627 | 40135 ft | 408 kts | 196° |
| 2026-05-03 21:06 | 30.94679 | -81.06744 | 40130 ft | 408 kts | 196° |
| 2026-05-03 21:06 | 30.88994 | -81.06861 | 40130 ft | 409 kts | 196° |
| 2026-05-03 21:07 | 30.83310 | -81.06978 | 40130 ft | 409 kts | 196° |
| 2026-05-03 21:07 | 30.77627 | -81.07095 | 40129 ft | 409 kts | 196° |
| 2026-05-03 21:08 | 30.71944 | -81.07211 | 40130 ft | 409 kts | 196° |
| 2026-05-03 21:08 | 30.66255 | -81.07328 | 40130 ft | 409 kts | 196° |
| 2026-05-03 21:09 | 30.60644 | -81.07575 | 40131 ft | 404 kts | 198° |
| 2026-05-03 21:09 | 30.55023 | -81.07919 | 40130 ft | 405 kts | 198° |
| 2026-05-03 21:10 | 30.49394 | -81.08254 | 40130 ft | 405 kts | 198° |
| 2026-05-03 21:10 | 30.43768 | -81.08588 | 40130 ft | 405 kts | 198° |
| 2026-05-03 21:11 | 30.38142 | -81.08922 | 40130 ft | 405 kts | 198° |
| 2026-05-03 21:11 | 30.32517 | -81.09255 | 40130 ft | 405 kts | 198° |
| 2026-05-03 21:12 | 30.26883 | -81.09589 | 40130 ft | 405 kts | 198° |
| 2026-05-03 21:12 | 30.21258 | -81.09921 | 40130 ft | 405 kts | 198° |
| 2026-05-03 21:13 | 30.15629 | -81.10253 | 40130 ft | 405 kts | 198° |
| 2026-05-03 21:13 | 30.10040 | -81.10583 | 40130 ft | 405 kts | 198° |
| 2026-05-03 21:14 | 30.04411 | -81.10914 | 40130 ft | 405 kts | 198° |
| 2026-05-03 21:14 | 29.98785 | -81.11245 | 40130 ft | 405 kts | 198° |
| 2026-05-03 21:15 | 29.93151 | -81.11576 | 40130 ft | 405 kts | 198° |
| 2026-05-03 21:15 | 29.87513 | -81.11910 | 40119 ft | 409 kts | 195° |
| 2026-05-03 21:16 | 29.81707 | -81.11754 | 40117 ft | 441 kts | 179° |
| 2026-05-03 21:16 | 29.78740 | -81.10586 | 40138 ft | 459 kts | 171° |
| 2026-05-03 21:16 | 29.75777 | -81.09205 | 40125 ft | 461 kts | 171° |
| 2026-05-03 21:17 | 29.70848 | -81.06845 | 40129 ft | 462 kts | 170° |
| 2026-05-03 21:17 | 29.63975 | -81.03489 | 40129 ft | 462 kts | 170° |
| 2026-05-03 21:18 | 29.58119 | -81.00624 | 40130 ft | 460 kts | 170° |
| 2026-05-03 21:18 | 29.52266 | -80.97765 | 40130 ft | 456 kts | 170° |
| 2026-05-03 21:19 | 29.46431 | -80.94917 | 40130 ft | 456 kts | 170° |
| 2026-05-03 21:19 | 29.40590 | -80.92071 | 40130 ft | 456 kts | 170° |
| 2026-05-03 21:20 | 29.34753 | -80.89230 | 40129 ft | 456 kts | 170° |
| 2026-05-03 21:20 | 29.28916 | -80.86392 | 40130 ft | 456 kts | 170° |
| 2026-05-03 21:21 | 29.23073 | -80.83555 | 40130 ft | 456 kts | 170° |
| 2026-05-03 21:21 | 29.17273 | -80.80743 | 40130 ft | 456 kts | 170° |
| 2026-05-03 21:22 | 29.11430 | -80.77913 | 40129 ft | 456 kts | 170° |
| 2026-05-03 21:22 | 29.05590 | -80.75088 | 40130 ft | 456 kts | 170° |
| 2026-05-03 21:23 | 28.99750 | -80.72266 | 40130 ft | 456 kts | 170° |
| 2026-05-03 21:23 | 28.93892 | -80.69594 | 40130 ft | 453 kts | 172° |
| 2026-05-03 21:24 | 28.88025 | -80.66968 | 40130 ft | 453 kts | 172° |
| 2026-05-03 21:24 | 28.82157 | -80.64340 | 40129 ft | 453 kts | 172° |
| 2026-05-03 21:25 | 28.76290 | -80.61716 | 40130 ft | 453 kts | 172° |
| 2026-05-03 21:25 | 28.70410 | -80.59089 | 40075 ft | 454 kts | 170° |
| 2026-05-03 21:26 | 28.64571 | -80.56483 | 40079 ft | 454 kts | 170° |
| 2026-05-03 21:26 | 28.58688 | -80.53860 | 40078 ft | 454 kts | 170° |
| 2026-05-03 21:27 | 28.52870 | -80.51270 | 40077 ft | 454 kts | 170° |
| 2026-05-03 21:27 | 28.46985 | -80.48654 | 40063 ft | 454 kts | 170° |
| 2026-05-03 21:28 | 28.41105 | -80.46042 | 40076 ft | 454 kts | 170° |
| 2026-05-03 21:28 | 28.35215 | -80.43429 | 40077 ft | 454 kts | 170° |
| 2026-05-03 21:29 | 28.29331 | -80.40822 | 40078 ft | 454 kts | 170° |
| 2026-05-03 21:29 | 28.23485 | -80.38235 | 40076 ft | 454 kts | 170° |
| 2026-05-03 21:30 | 28.17600 | -80.35633 | 40075 ft | 454 kts | 170° |
| 2026-05-03 21:30 | 28.12670 | -80.33455 | 40076 ft | 454 kts | 170° |
| 2026-05-03 21:31 | 28.05801 | -80.30674 | 40082 ft | 450 kts | 172° |
| 2026-05-03 21:31 | 28.00878 | -80.28747 | 40077 ft | 450 kts | 172° |
| 2026-05-03 21:32 | 27.94954 | -80.26423 | 40072 ft | 451 kts | 172° |
| 2026-05-03 21:32 | 27.89028 | -80.24100 | 40075 ft | 451 kts | 172° |
| 2026-05-03 21:33 | 27.83109 | -80.21782 | 40077 ft | 451 kts | 172° |
| 2026-05-03 21:33 | 27.77177 | -80.19462 | 39897 ft | 451 kts | 172° |
| 2026-05-03 21:34 | 27.74222 | -80.18306 | 39415 ft | 449 kts | 172° |
| 2026-05-03 21:34 | 27.71266 | -80.17153 | 38608 ft | 450 kts | 172° |
| 2026-05-03 21:34 | 27.68303 | -80.15995 | 37741 ft | 450 kts | 172° |
| 2026-05-03 21:34 | 27.65357 | -80.14846 | 36960 ft | 446 kts | 172° |
| 2026-05-03 21:35 | 27.62436 | -80.13692 | 36179 ft | 447 kts | 172° |
| 2026-05-03 21:35 | 27.59512 | -80.12483 | 35273 ft | 447 kts | 172° |
| 2026-05-03 21:35 | 27.56578 | -80.11274 | 34485 ft | 449 kts | 171° |
| 2026-05-03 21:35 | 27.53679 | -80.10084 | 33735 ft | 451 kts | 169° |
| 2026-05-03 21:36 | 27.50731 | -80.08873 | 33084 ft | 453 kts | 169° |
| 2026-05-03 21:36 | 27.47761 | -80.07655 | 32463 ft | 455 kts | 169° |
| 2026-05-03 21:36 | 27.44791 | -80.06437 | 31877 ft | 455 kts | 169° |
| 2026-05-03 21:36 | 27.41805 | -80.05213 | 31265 ft | 456 kts | 169° |
| 2026-05-03 21:37 | 27.39103 | -80.04115 | 30702 ft | 456 kts | 171° |
| 2026-05-03 21:37 | 27.36078 | -80.03167 | 30028 ft | 452 kts | 174° |
| 2026-05-03 21:37 | 27.33039 | -80.02234 | 29430 ft | 453 kts | 173° |
| 2026-05-03 21:37 | 27.29998 | -80.01281 | 28823 ft | 455 kts | 173° |
| 2026-05-03 21:38 | 27.26948 | -80.00314 | 28183 ft | 457 kts | 173° |
| 2026-05-03 21:38 | 27.23938 | -79.99248 | 27500 ft | 445 kts | 171° |
| 2026-05-03 21:38 | 27.21052 | -79.98199 | 27015 ft | 426 kts | 171° |
| 2026-05-03 21:38 | 27.18271 | -79.97205 | 26434 ft | 418 kts | 172° |
| 2026-05-03 21:39 | 27.15496 | -79.96217 | 25789 ft | 418 kts | 172° |
| 2026-05-03 21:39 | 27.12738 | -79.95233 | 25164 ft | 414 kts | 172° |
| 2026-05-03 21:39 | 27.10053 | -79.94276 | 24559 ft | 407 kts | 171° |
| 2026-05-03 21:39 | 27.07359 | -79.93305 | 23937 ft | 408 kts | 170° |
| 2026-05-03 21:40 | 27.04694 | -79.92221 | 23254 ft | 404 kts | 169° |
| 2026-05-03 21:40 | 27.02084 | -79.91160 | 22713 ft | 396 kts | 169° |
| 2026-05-03 21:40 | 26.99494 | -79.90117 | 22132 ft | 393 kts | 169° |
| 2026-05-03 21:40 | 26.96941 | -79.89091 | 21551 ft | 388 kts | 169° |
| 2026-05-03 21:41 | 26.94412 | -79.88077 | 20975 ft | 384 kts | 169° |
| 2026-05-03 21:41 | 26.91896 | -79.87068 | 20402 ft | 383 kts | 169° |
| 2026-05-03 21:41 | 26.89407 | -79.86070 | 19836 ft | 379 kts | 169° |
| 2026-05-03 21:41 | 26.86932 | -79.85079 | 19275 ft | 378 kts | 169° |
| 2026-05-03 21:42 | 26.84472 | -79.84093 | 18717 ft | 371 kts | 168° |
| 2026-05-03 21:42 | 26.82072 | -79.83132 | 18178 ft | 360 kts | 169° |
| 2026-05-03 21:42 | 26.79741 | -79.82195 | 17564 ft | 353 kts | 168° |
| 2026-05-03 21:42 | 26.77458 | -79.81277 | 17036 ft | 344 kts | 168° |
| 2026-05-03 21:43 | 26.75237 | -79.80384 | 16540 ft | 334 kts | 168° |
| 2026-05-03 21:43 | 26.73080 | -79.79517 | 16059 ft | 325 kts | 168° |
| 2026-05-03 21:43 | 26.71668 | -79.79021 | 15690 ft | 315 kts | 177° |
| 2026-05-03 21:43 | 26.70054 | -79.78929 | 15313 ft | 300 kts | 193° |
| 2026-05-03 21:44 | 26.68495 | -79.79309 | 14977 ft | 295 kts | 201° |
| 2026-05-03 21:44 | 26.66637 | -79.79910 | 14229 ft | 298 kts | 202° |
| 2026-05-03 21:44 | 26.65605 | -79.80267 | 14372 ft | 297 kts | 197° |
| 2026-05-03 21:44 | 26.65331 | -79.80367 | 14325 ft | 298 kts | 198° |
| 2026-05-03 21:45 | 26.63419 | -79.81077 | 13947 ft | 303 kts | 199° |
| 2026-05-03 21:45 | 26.61692 | -79.81742 | 13448 ft | 310 kts | 200° |
| 2026-05-03 21:45 | 26.60942 | -79.82035 | 13243 ft | 312 kts | 200° |
| 2026-05-03 21:46 | 26.59307 | -79.82683 | 12828 ft | 315 kts | 200° |
| 2026-05-03 21:46 | 26.57272 | -79.83497 | 12351 ft | 312 kts | 200° |
| 2026-05-03 21:46 | 26.55251 | -79.84341 | 11879 ft | 307 kts | 203° |
| 2026-05-03 21:47 | 26.53312 | -79.85260 | 11375 ft | 301 kts | 203° |
| 2026-05-03 21:47 | 26.51396 | -79.86163 | 10946 ft | 295 kts | 203° |
| 2026-05-03 21:47 | 26.49511 | -79.87045 | 10537 ft | 291 kts | 205° |
| 2026-05-03 21:47 | 26.47662 | -79.87911 | 10135 ft | 284 kts | 205° |
| 2026-05-03 21:48 | 26.45871 | -79.88748 | 9728 ft | 276 kts | 205° |
| 2026-05-03 21:48 | 26.44123 | -79.89565 | 9328 ft | 270 kts | 205° |
| 2026-05-03 21:48 | 26.42391 | -79.90373 | 8935 ft | 271 kts | 205° |
| 2026-05-03 21:48 | 26.40649 | -79.91186 | 8525 ft | 272 kts | 205° |
| 2026-05-03 21:49 | 26.38931 | -79.91987 | 8129 ft | 269 kts | 205° |
| 2026-05-03 21:49 | 26.37302 | -79.92930 | 7971 ft | 261 kts | 213° |
| 2026-05-03 21:49 | 26.35746 | -79.93956 | 7835 ft | 260 kts | 213° |
| 2026-05-03 21:49 | 26.34187 | -79.94967 | 7727 ft | 260 kts | 212° |
| 2026-05-03 21:50 | 26.32619 | -79.95973 | 7611 ft | 259 kts | 212° |
| 2026-05-03 21:50 | 26.31059 | -79.96967 | 7494 ft | 259 kts | 212° |
| 2026-05-03 21:50 | 26.29493 | -79.97961 | 7377 ft | 258 kts | 212° |
| 2026-05-03 21:50 | 26.27934 | -79.98948 | 7259 ft | 258 kts | 212° |
| 2026-05-03 21:51 | 26.26379 | -79.99942 | 7135 ft | 257 kts | 213° |
| 2026-05-03 21:51 | 26.24834 | -80.00937 | 6999 ft | 257 kts | 213° |
| 2026-05-03 21:51 | 26.23292 | -80.01929 | 6894 ft | 256 kts | 213° |
| 2026-05-03 21:51 | 26.21745 | -80.02923 | 6777 ft | 256 kts | 212° |
| 2026-05-03 21:52 | 26.20204 | -80.03912 | 6665 ft | 256 kts | 212° |
| 2026-05-03 21:52 | 26.18724 | -80.04988 | 6533 ft | 252 kts | 226° |
| 2026-05-03 21:52 | 26.17813 | -80.06541 | 6410 ft | 248 kts | 249° |
| 2026-05-03 21:52 | 26.17203 | -80.08387 | 6313 ft | 250 kts | 250° |
| 2026-05-03 21:53 | 26.16612 | -80.10229 | 6195 ft | 249 kts | 251° |
| 2026-05-03 21:53 | 26.16053 | -80.12005 | 6066 ft | 248 kts | 251° |
| 2026-05-03 21:53 | 26.15486 | -80.13835 | 5941 ft | 247 kts | 251° |
| 2026-05-03 21:53 | 26.15070 | -80.15638 | 5804 ft | 234 kts | 265° |
| 2026-05-03 21:54 | 26.15061 | -80.17386 | 5693 ft | 219 kts | 268° |
| 2026-05-03 21:54 | 26.15056 | -80.19072 | 5610 ft | 216 kts | 268° |
| 2026-05-03 21:54 | 26.15055 | -80.20737 | 5515 ft | 215 kts | 269° |
| 2026-05-03 21:54 | 26.15058 | -80.22396 | 5416 ft | 215 kts | 269° |
| 2026-05-03 21:55 | 26.15062 | -80.24058 | 5318 ft | 215 kts | 269° |
| 2026-05-03 21:55 | 26.15067 | -80.25716 | 5220 ft | 214 kts | 269° |
| 2026-05-03 21:55 | 26.15074 | -80.27373 | 5122 ft | 214 kts | 269° |
| 2026-05-03 21:55 | 26.15080 | -80.29035 | 4837 ft | 216 kts | 269° |
| 2026-05-03 21:56 | 26.15086 | -80.30695 | 4460 ft | 214 kts | 269° |
| 2026-05-03 21:56 | 26.15093 | -80.32340 | 4104 ft | 210 kts | 269° |
| 2026-05-03 21:56 | 26.15233 | -80.33914 | 3755 ft | 208 kts | 288° |
| 2026-05-03 21:56 | 26.16085 | -80.35202 | 3374 ft | 211 kts | 319° |
| 2026-05-03 21:57 | 26.17278 | -80.36129 | 3103 ft | 202 kts | 314° |
| 2026-05-03 21:57 | 26.17929 | -80.37387 | 2984 ft | 180 kts | 277° |
| 2026-05-03 21:57 | 26.17731 | -80.38700 | 2980 ft | 175 kts | 247° |
| 2026-05-03 21:57 | 26.17159 | -80.39904 | 3033 ft | 176 kts | 243° |
| 2026-05-03 21:58 | 26.16555 | -80.41099 | 3028 ft | 177 kts | 243° |
| 2026-05-03 21:58 | 26.15951 | -80.42293 | 3003 ft | 177 kts | 241° |
| 2026-05-03 21:58 | 26.15267 | -80.43431 | 3002 ft | 178 kts | 236° |
| 2026-05-03 21:58 | 26.14482 | -80.44494 | 2989 ft | 179 kts | 228° |
| 2026-05-03 21:59 | 26.13370 | -80.45106 | 2930 ft | 186 kts | 190° |
| 2026-05-03 21:59 | 26.12091 | -80.44780 | 2937 ft | 197 kts | 152° |
| 2026-05-03 21:59 | 26.11089 | -80.43719 | 3014 ft | 203 kts | 134° |
| 2026-05-03 21:59 | 26.10194 | -80.42516 | 3052 ft | 205 kts | 133° |
| 2026-05-03 22:00 | 26.09304 | -80.41285 | 3026 ft | 205 kts | 129° |
| 2026-05-03 22:00 | 26.08637 | -80.39875 | 3008 ft | 206 kts | 114° |
| 2026-05-03 22:00 | 26.08157 | -80.38369 | 3021 ft | 208 kts | 107° |
| 2026-05-03 22:00 | 26.07884 | -80.36781 | 2997 ft | 209 kts | 97° |
| 2026-05-03 22:01 | 26.07804 | -80.35203 | 2992 ft | 198 kts | 92° |
| 2026-05-03 22:01 | 26.07789 | -80.33692 | 2939 ft | 194 kts | 91° |
| 2026-05-03 22:01 | 26.07780 | -80.32201 | 2704 ft | 191 kts | 91° |
| 2026-05-03 22:01 | 26.07772 | -80.30739 | 2464 ft | 186 kts | 91° |
| 2026-05-03 22:02 | 26.07764 | -80.29349 | 2271 ft | 174 kts | 91° |
| 2026-05-03 22:02 | 26.07757 | -80.28069 | 2047 ft | 159 kts | 91° |
| 2026-05-03 22:02 | 26.07751 | -80.26856 | 1863 ft | 154 kts | 91° |
| 2026-05-03 22:02 | 26.07744 | -80.25674 | 1655 ft | 152 kts | 91° |
| 2026-05-03 22:03 | 26.07738 | -80.24517 | 1450 ft | 150 kts | 91° |
| 2026-05-03 22:03 | 26.07746 | -80.23363 | 1327 ft | 150 kts | 90° |
| 2026-05-03 22:03 | 26.07753 | -80.22210 | 1121 ft | 148 kts | 92° |
| 2026-05-03 22:03 | 26.07727 | -80.21073 | 928 ft | 146 kts | 92° |
| 2026-05-03 22:04 | 26.07732 | -80.19957 | 713 ft | 144 kts | 93° |
| 2026-05-03 22:04 | 26.07718 | -80.18846 | 405 ft | 143 kts | 92° |
| 2026-05-03 22:04 | 26.07706 | -80.17760 | 248 ft | 141 kts | 91° |
| 2026-05-03 22:04 | 26.07697 | -80.16652 | 69 ft | 143 kts | 90° |
| 2026-05-03 22:05 | 26.07689 | -80.15631 | 13 ft | 108 kts | 89° |
| 2026-05-03 22:05 | 26.07683 | -80.15014 | 15 ft | 55 kts | 92° |
| 2026-05-03 22:05 | 26.07644 | -80.14636 | 22 ft | 34 kts | 111° |
| 2026-05-03 22:05 | 26.07618 | -80.14572 | 23 ft | 0 kts | 117° |
| 2026-05-03 22:07 | 26.07613 | -80.14562 | 23 ft | 6 kts | 125° |
| 2026-05-03 22:07 | 26.07547 | -80.14510 | 22 ft | 14 kts | 168° |
| 2026-05-03 22:08 | 26.07479 | -80.14454 | 22 ft | 11 kts | 135° |
| 2026-05-03 22:08 | 26.07478 | -80.14407 | 22 ft | 10 kts | 80° |
| 2026-05-03 22:08 | 26.07475 | -80.14292 | 21 ft | 18 kts | 107° |
| 2026-05-03 22:08 | 26.07400 | -80.14201 | 21 ft | 13 kts | 171° |
| 2026-05-03 22:09 | 26.07313 | -80.14174 | 21 ft | 11 kts | 152° |
| 2026-05-03 22:09 | 26.07296 | -80.14128 | 21 ft | 6 kts | 97° |
| 2026-05-03 22:09 | 26.07295 | -80.14126 | 21 ft | 0 kts | 97° |